Time;durP1;ratioP1;P1;durP2;ratioP2;P2;SDS_P1;SDS_P2;PMS_P1;PMS_P2;Temp;Humidity;BMP_temperature;BMP_pressure;BME280_temperature;BME280_humidity;BME280_pressure;Samples;Min_cycle;Max_cycle;Signal;HPM_P1;HPM_P2
2022/05/21 00:12:59;;;;;;;;;;;;;;;11.14;100.00;101830.41;2613352;54;19950;-59
2022/05/21 00:25:27;;;;;;;;;;;;;;;11.21;100.00;101820.88;2613113;54;20440;-58
2022/05/21 00:27:55;;;;;;;;;;;;;;;11.29;100.00;101811.34;2613224;36;20001;-58
2022/05/21 00:35:33;;;;;;;;;;;;;;;11.22;100.00;101806.44;2612500;54;20389;-58
2022/05/21 00:42:53;;;;;;;;;;;;;;;11.47;100.00;101818.03;2612585;54;19966;-56
2022/05/21 01:00:17;;;;;;;;;;;;;;;11.80;100.00;101826.31;2610889;36;19955;-57
2022/05/21 01:02:48;;;;;;;;;;;;;;;11.82;100.00;101830.63;2614188;36;19957;-59
2022/05/21 01:05:17;;;;;;;;;;;;;;;11.87;100.00;101823.00;2613300;36;19980;-61
2022/05/21 01:07:46;;;;;;;;;;;;;;;11.96;100.00;101823.31;2612590;36;19947;-60
2022/05/21 01:10:16;;;;;;;;;;;;;;;11.97;100.00;101833.09;2612551;36;20046;-57
2022/05/21 01:12:47;;;;;;;;;;;;;;;11.96;100.00;101831.41;2613451;36;20415;-58
2022/05/21 01:15:19;;;;;;;;;;;;;;;12.02;100.00;101822.81;2612226;36;20037;-58
2022/05/21 01:40:21;;;;;;;;;;;;;;;12.26;100.00;101801.97;2612184;36;20090;-58
2022/05/21 01:44:37;;;;;;;;;;;;;;;12.21;100.00;101806.00;2613244;36;20053;-59
2022/05/21 01:48:08;;;;;;;;;;;;;;;12.32;100.00;101800.59;2612499;36;20296;-58
2022/05/21 01:50:36;;;;;;;;;;;;;;;12.40;100.00;101810.78;2612703;36;19950;-59
2022/05/21 01:53:04;;;;;;;;;;;;;;;12.41;100.00;101809.78;2612302;36;20085;-59
2022/05/21 01:55:35;;;;;;;;;;;;;;;12.48;100.00;101816.41;2612780;54;19947;-56
2022/05/21 01:58:03;;;;;;;;;;;;;;;12.45;100.00;101813.97;2612021;36;20104;-58
2022/05/21 02:00:33;;;;;;;;;;;;;;;12.47;100.00;101803.91;2611389;36;20443;-57
2022/05/21 02:03:01;;;;;;;;;;;;;;;12.45;100.00;101800.44;2613269;36;20058;-58
2022/05/21 02:07:55;;;;;;;;;;;;;;;12.48;100.00;101805.59;2613778;54;20034;-59
2022/05/21 02:10:24;;;;;;;;;;;;;;;12.53;100.00;101803.41;2614068;31;20129;-58
2022/05/21 02:12:55;;;;;;;;;;;;;;;12.59;100.00;101802.88;2613459;31;20400;-55
2022/05/21 02:15:23;;;;;;;;;;;;;;;12.73;100.00;101809.84;2611660;36;19951;-56
2022/05/21 02:17:52;;;;;;;;;;;;;;;12.55;100.00;101809.53;2610986;36;20615;-58
2022/05/21 02:20:20;;;;;;;;;;;;;;;12.59;100.00;101815.53;2612460;31;20431;-58
2022/05/21 02:22:48;;;;;;;;;;;;;;;12.56;100.00;101811.25;2612838;36;20407;-58
2022/05/21 02:25:16;;;;;;;;;;;;;;;12.59;100.00;101808.28;2612754;36;20066;-58
2022/05/21 02:27:44;;;;;;;;;;;;;;;12.65;100.00;101812.34;2612128;36;19954;-59
2022/05/21 02:33:11;;;;;;;;;;;;;;;12.73;100.00;101806.28;2613241;36;20053;-58
2022/05/21 02:40:58;;;;;;;;;;;;;;;12.85;100.00;101820.63;2613232;36;20423;-57
2022/05/21 02:43:29;;;;;;;;;;;;;;;12.79;100.00;101809.34;2612649;36;20106;-58
2022/05/21 02:53:24;;;;;;;;;;;;;;;12.69;100.00;101807.53;2613324;36;19989;-57
2022/05/21 02:55:55;;;;;;;;;;;;;;;12.79;100.00;101814.75;2613203;36;19947;-60
2022/05/21 03:06:14;;;;;;;;;;;;;;;12.74;100.00;101811.56;2613969;31;20396;-60
2022/05/21 03:19:07;;;;;;;;;;;;;;;12.96;100.00;101809.78;2612954;36;19943;-59
2022/05/21 03:26:52;;;;;;;;;;;;;;;13.01;100.00;101807.53;2612817;36;19982;-59
2022/05/21 03:29:21;;;;;;;;;;;;;;;13.04;100.00;101809.13;2613067;54;20041;-58
2022/05/21 03:31:49;;;;;;;;;;;;;;;12.98;100.00;101821.31;2614170;36;20025;-60
2022/05/21 03:34:19;;;;;;;;;;;;;;;13.04;100.00;101811.84;2613110;36;19951;-59
2022/05/21 03:36:47;;;;;;;;;;;;;;;13.09;100.00;101812.31;2613375;36;19950;-58
2022/05/21 03:39:15;;;;;;;;;;;;;;;13.07;100.00;101807.06;2613436;54;20032;-59
2022/05/21 03:49:16;;;;;;;;;;;;;;;13.23;100.00;101812.00;2614527;39;20320;-60
2022/05/21 04:19:22;;;;;;;;;;;;;;;12.85;100.00;101853.03;2612389;54;19946;-59
2022/05/21 04:21:50;;;;;;;;;;;;;;;12.85;100.00;101853.88;2613180;36;20062;-60
2022/05/21 04:29:12;;;;;;;;;;;;;;;12.78;100.00;101850.00;2612133;47;19939;-58
2022/05/21 04:31:40;;;;;;;;;;;;;;;12.74;100.00;101848.53;2613443;36;19946;-59
2022/05/21 04:39:05;;;;;;;;;;;;;;;12.77;100.00;101862.63;2612833;46;20053;-56
2022/05/21 04:41:33;;;;;;;;;;;;;;;12.89;100.00;101860.75;2612354;36;20069;-59
2022/05/21 04:44:02;;;;;;;;;;;;;;;12.96;100.00;101867.38;2612917;36;19946;-61
2022/05/21 04:46:31;;;;;;;;;;;;;;;13.00;100.00;101867.13;2613274;31;19950;-59
2022/05/21 04:54:00;;;;;;;;;;;;;;;13.12;100.00;101869.69;2612521;54;20031;-58
2022/05/21 04:56:31;;;;;;;;;;;;;;;13.22;100.00;101871.59;2612076;32;20020;-58
2022/05/21 05:03:59;;;;;;;;;;;;;;;13.08;100.00;101884.41;2612405;54;20001;-62
2022/05/21 05:06:26;;;;;;;;;;;;;;;12.98;100.00;101886.16;2611886;36;19950;-57
2022/05/21 05:08:55;;;;;;;;;;;;;;;13.07;100.00;101882.72;2612276;36;20038;-61
2022/05/21 05:11:23;;;;;;;;;;;;;;;13.00;100.00;101884.22;2612308;36;19984;-59
2022/05/21 05:21:26;;;;;;;;;;;;;;;13.23;100.00;101882.28;2617216;31;20467;-61
2022/05/21 05:23:54;;;;;;;;;;;;;;;13.12;100.00;101880.47;2612466;36;19942;-59
2022/05/21 05:33:46;;;;;;;;;;;;;;;13.21;100.00;101886.13;2611072;36;19954;-59
2022/05/21 05:36:21;;;;;;;;;;;;;;;13.37;100.00;101889.28;2614783;36;19951;-57
2022/05/21 05:41:32;;;;;;;;;;;;;;;13.52;100.00;101880.88;2613985;54;19989;-57
2022/05/21 05:44:03;;;;;;;;;;;;;;;13.41;100.00;101887.16;2615746;36;20073;-56
2022/05/21 05:46:37;;;;;;;;;;;;;;;13.33;100.00;101888.63;2613640;36;20301;31
2022/05/21 05:57:09;;;;;;;;;;;;;;;13.66;100.00;101892.22;2623069;36;19969;-54
2022/05/21 06:05:11;;;;;;;;;;;;;;;13.79;100.00;101891.16;2612784;54;19951;-57
2022/05/21 06:17:49;;;;;;;;;;;;;;;14.28;100.00;101918.50;2612426;54;20450;-58
2022/05/21 06:20:18;;;;;;;;;;;;;;;14.23;100.00;101920.78;2614799;36;19970;-58
2022/05/21 06:27:38;;;;;;;;;;;;;;;14.43;100.00;101919.00;2612540;39;20376;-59
2022/05/21 06:30:07;;;;;;;;;;;;;;;14.43;100.00;101919.91;2614493;31;20411;-58
2022/05/21 06:32:35;;;;;;;;;;;;;;;14.45;100.00;101919.75;2613568;36;20503;-58
2022/05/21 06:40:06;;;;;;;;;;;;;;;14.66;100.00;101919.72;2612267;54;19950;-58
2022/05/21 06:42:34;;;;;;;;;;;;;;;14.86;100.00;101923.38;2612821;36;20133;-57
2022/05/21 06:45:02;;;;;;;;;;;;;;;14.80;100.00;101932.91;2612451;36;20030;-60
2022/05/21 06:47:30;;;;;;;;;;;;;;;15.00;100.00;101930.25;2613282;36;20507;-58
2022/05/21 06:49:59;;;;;;;;;;;;;;;14.98;100.00;101918.69;2612847;36;19951;-58
2022/05/21 06:55:00;;;;;;;;;;;;;;;14.95;100.00;101932.53;2612141;54;19944;-59
2022/05/21 07:07:47;;;;;;;;;;;;;;;15.26;100.00;101946.84;2612900;54;19970;-59
2022/05/21 07:20:18;;;;;;;;;;;;;;;15.92;100.00;101956.19;2612214;36;19951;-57
2022/05/21 07:22:50;;;;;;;;;;;;;;;15.89;100.00;101957.34;2616412;36;19961;-60
2022/05/21 07:30:16;;;;;;;;;;;;;;;15.88;100.00;101971.06;2611925;36;19970;-59
2022/05/21 07:32:45;;;;;;;;;;;;;;;15.73;100.00;101963.31;2611331;36;19997;-59
2022/05/21 07:50:07;;;;;;;;;;;;;;;16.82;100.00;101967.53;2612033;46;19955;-59
2022/05/21 07:52:42;;;;;;;;;;;;;;;16.96;100.00;101982.50;2617558;31;19969;-58
2022/05/21 08:02:42;;;;;;;;;;;;;;;17.27;100.00;101982.19;2612342;36;19954;-59
2022/05/21 08:05:13;;;;;;;;;;;;;;;17.17;100.00;101982.28;2612306;36;19946;-59
2022/05/21 08:07:41;;;;;;;;;;;;;;;16.98;100.00;101983.22;2611526;36;20082;-59
2022/05/21 08:10:09;;;;;;;;;;;;;;;16.76;100.00;101985.28;2611198;36;20034;-59
2022/05/21 08:20:04;;;;;;;;;;;;;;;17.08;100.00;101985.91;2611764;36;19953;-61
2022/05/21 08:27:56;;;;;;;;;;;;;;;18.01;100.00;101982.97;2614010;31;19950;-58
2022/05/21 08:30:24;;;;;;;;;;;;;;;18.15;100.00;101996.03;2603291;36;19946;-59
2022/05/21 08:48:19;;;;;;;;;;;;;;;18.28;100.00;102008.38;2611331;36;20351;-58
2022/05/21 09:13:24;;;;;;;;;;;;;;;18.78;100.00;101996.75;2612056;54;19961;-61
2022/05/21 09:18:32;;;;;;;;;;;;;;;19.41;100.00;102002.84;2611698;36;19958;-59
2022/05/21 09:21:02;;;;;;;;;;;;;;;18.95;100.00;101995.00;2612329;36;20213;-58
2022/05/21 09:23:44;;;;;;;;;;;;;;;18.60;100.00;101993.25;2609150;36;19985;-62
2022/05/21 09:26:12;;;;;;;;;;;;;;;18.49;100.00;101997.09;2610916;31;20085;-58
2022/05/21 09:28:43;;;;;;;;;;;;;;;18.36;100.00;101997.53;2612706;36;19950;-58
2022/05/21 09:31:12;;;;;;;;;;;;;;;18.55;100.00;101991.88;2611067;36;20053;-60
2022/05/21 09:33:41;;;;;;;;;;;;;;;18.78;100.00;102001.34;2612856;36;20428;-60
2022/05/21 09:36:10;;;;;;;;;;;;;;;18.45;100.00;102009.34;2611684;36;19954;-59
2022/05/21 09:38:50;;;;;;;;;;;;;;;18.24;100.00;102007.84;2609004;31;20535;-60
2022/05/21 09:41:19;;;;;;;;;;;;;;;18.02;100.00;102011.91;2606191;36;20061;-60
2022/05/21 10:11:48;;;;;;;;;;;;;;;18.46;100.00;102017.38;2612281;31;20379;-59
2022/05/21 10:19:18;;;;;;;;;;;;;;;18.34;100.00;102032.25;2611941;54;19964;-58
2022/05/21 10:52:15;;;;;;;;;;;;;;;19.04;100.00;102032.22;2616761;36;20446;-58
2022/05/21 11:09:44;;;;;;;;;;;;;;;19.19;100.00;102032.44;2612633;39;20431;-60
2022/05/21 11:19:45;;;;;;;;;;;;;;;20.28;100.00;102051.63;2616555;36;19947;-58
2022/05/21 11:40:08;;;;;;;;;;;;;;;19.53;100.00;102061.56;2612405;36;19947;-60
2022/05/21 11:42:37;;;;;;;;;;;;;;;19.20;100.00;102061.44;2613441;36;19981;-58
2022/05/21 11:52:53;;;;;;;;;;;;;;;19.42;100.00;102059.16;2612690;31;20455;-54
2022/05/21 11:55:25;;;;;;;;;;;;;;;19.39;100.00;102059.47;2617468;36;20367;-55
2022/05/21 11:57:54;;;;;;;;;;;;;;;18.85;100.00;102060.56;2613199;36;20062;-54
2022/05/21 12:00:38;;;;;;;;;;;;;;;18.55;100.00;102062.75;2611652;36;19966;-53
2022/05/21 12:03:13;;;;;;;;;;;;;;;18.86;100.00;102072.34;2614002;36;19962;-54
2022/05/21 12:05:58;;;;;;;;;;;;;;;19.07;100.00;102061.06;2613565;36;20082;-53
2022/05/21 12:08:39;;;;;;;;;;;;;;;18.96;100.00;102069.50;2612441;36;19958;-56
2022/05/21 12:11:10;;;;;;;;;;;;;;;18.58;100.00;102071.63;2613112;36;20010;-56
2022/05/21 12:13:53;;;;;;;;;;;;;;;18.33;100.00;102074.16;2612888;36;19946;-56
2022/05/21 12:24:05;;;;;;;;;;;;;;;19.77;100.00;102076.31;2611492;54;19981;-53
2022/05/21 12:26:37;;;;;;;;;;;;;;;19.48;100.00;102068.53;2612513;31;20514;-56
2022/05/21 12:29:09;;;;;;;;;;;;;;;20.24;100.00;102075.75;2612383;36;19950;-55
2022/05/21 12:31:43;;;;;;;;;;;;;;;19.99;100.00;102072.09;2614089;36;19985;-53
2022/05/21 12:34:26;;;;;;;;;;;;;;;19.42;100.00;102064.63;2612713;36;19989;-52
2022/05/21 12:37:01;;;;;;;;;;;;;;;19.06;100.00;102059.34;2613959;31;20038;-55
2022/05/21 12:39:34;;;;;;;;;;;;;;;18.83;100.00;102073.50;2612688;36;19958;-53
2022/05/21 12:42:10;;;;;;;;;;;;;;;18.55;100.00;102065.47;2614129;36;19954;-55
2022/05/21 12:44:39;;;;;;;;;;;;;;;18.72;100.00;102073.75;2614976;36;19946;-56
2022/05/21 12:47:08;;;;;;;;;;;;;;;18.65;100.00;102072.69;2613265;36;20464;-52
2022/05/21 12:49:36;;;;;;;;;;;;;;;18.60;100.00;102077.78;2611457;36;19946;-52
2022/05/21 12:52:05;;;;;;;;;;;;;;;18.65;100.00;102075.41;2613118;36;20410;-53
2022/05/21 12:54:33;;;;;;;;;;;;;;;18.69;100.00;102079.53;2611484;36;19951;-56
2022/05/21 12:57:12;;;;;;;;;;;;;;;19.22;100.00;102070.31;2610230;36;20499;-53
2022/05/21 12:59:43;;;;;;;;;;;;;;;19.20;100.00;102072.38;2613320;36;19946;-54
2022/05/21 13:02:13;;;;;;;;;;;;;;;19.11;100.00;102065.16;2612637;36;20034;-53
2022/05/21 13:04:42;;;;;;;;;;;;;;;19.12;100.00;102077.78;2613174;36;19958;-52
2022/05/21 13:07:15;;;;;;;;;;;;;;;19.34;100.00;102075.50;2613208;36;20061;-58
2022/05/21 13:09:53;;;;;;;;;;;;;;;19.31;100.00;102073.09;2612593;54;20030;-55
2022/05/21 13:12:21;;;;;;;;;;;;;;;19.47;100.00;102072.31;2613689;36;20065;-54
2022/05/21 13:14:52;;;;;;;;;;;;;;;19.55;100.00;102075.94;2613119;36;19986;-56
2022/05/21 13:17:27;;;;;;;;;;;;;;;19.65;100.00;102078.50;2612958;36;20527;-52
2022/05/21 13:20:11;;;;;;;;;;;;;;;19.35;100.00;102071.75;2612190;36;19969;-52
2022/05/21 13:22:53;;;;;;;;;;;;;;;19.11;100.00;102076.09;2613520;36;20436;-49
2022/05/21 13:25:22;;;;;;;;;;;;;;;19.21;100.00;102079.53;2613109;31;20009;-55
2022/05/21 13:27:51;;;;;;;;;;;;;;;19.72;100.00;102078.69;2613418;36;19951;-50
2022/05/21 13:30:23;;;;;;;;;;;;;;;19.58;100.00;102078.31;2611181;36;19970;-52
2022/05/21 13:32:54;;;;;;;;;;;;;;;19.73;100.00;102077.69;2613979;36;20332;-54
2022/05/21 13:35:25;;;;;;;;;;;;;;;19.29;100.00;102066.94;2613782;36;20590;-54
2022/05/21 13:37:53;;;;;;;;;;;;;;;19.64;100.00;102065.00;2613766;36;20392;-52
2022/05/21 13:40:23;;;;;;;;;;;;;;;19.50;100.00;102064.63;2611959;36;19951;-52
2022/05/21 13:42:52;;;;;;;;;;;;;;;19.97;100.00;102070.59;2612982;36;19966;-56
2022/05/21 13:45:28;;;;;;;;;;;;;;;20.03;100.00;102078.09;2613146;36;20037;-58
2022/05/21 13:47:59;;;;;;;;;;;;;;;20.35;100.00;102079.16;2613025;36;19954;-55
2022/05/21 13:50:30;;;;;;;;;;;;;;;20.03;100.00;102069.91;2612582;36;20034;-54
2022/05/21 13:52:58;;;;;;;;;;;;;;;19.94;100.00;102078.06;2613298;36;19950;-53
2022/05/21 13:55:26;;;;;;;;;;;;;;;19.00;100.00;102081.81;2611068;36;20045;-55
2022/05/21 13:57:55;;;;;;;;;;;;;;;19.16;100.00;102081.91;2612584;36;19972;-57
2022/05/21 14:00:31;;;;;;;;;;;;;;;19.65;100.00;102091.31;2613808;36;19950;-53
2022/05/21 14:02:59;;;;;;;;;;;;;;;19.77;100.00;102089.97;2612731;36;19958;-58
2022/05/21 14:05:31;;;;;;;;;;;;;;;19.94;100.00;102088.16;2612176;36;20062;-55
2022/05/21 14:08:16;;;;;;;;;;;;;;;19.58;100.00;102089.25;2611053;36;20404;-58
2022/05/21 14:10:46;;;;;;;;;;;;;;;19.94;100.00;102078.06;2613385;36;20492;-54
2022/05/21 14:13:34;;;;;;;;;;;;;;;19.69;100.00;102081.75;2613840;31;19962;-57
2022/05/21 14:16:08;;;;;;;;;;;;;;;19.46;100.00;102079.63;2613084;36;19987;-57
2022/05/21 14:18:36;;;;;;;;;;;;;;;20.19;100.00;102071.81;2613617;31;20367;-55
2022/05/21 14:21:07;;;;;;;;;;;;;;;20.58;100.00;102068.34;2613466;31;19946;-55
2022/05/21 14:23:37;;;;;;;;;;;;;;;19.78;100.00;102069.84;2612291;36;20061;-58
2022/05/21 14:26:12;;;;;;;;;;;;;;;19.98;100.00;102070.41;2612832;36;19950;-56
2022/05/21 14:28:41;;;;;;;;;;;;;;;19.69;100.00;102073.56;2612520;31;20657;-56
2022/05/21 14:34:04;;;;;;;;;;;;;;;19.58;100.00;102064.66;2611411;36;19954;-53
2022/05/21 14:36:37;;;;;;;;;;;;;;;19.64;100.00;102074.06;2613071;36;20310;-53
2022/05/21 14:39:05;;;;;;;;;;;;;;;19.32;100.00;102072.09;2611672;36;19946;-56
2022/05/21 14:41:34;;;;;;;;;;;;;;;19.55;100.00;102065.00;2612574;36;20058;-57
2022/05/21 14:44:03;;;;;;;;;;;;;;;19.57;100.00;102068.41;2613454;36;20611;-58
2022/05/21 14:49:15;;;;;;;;;;;;;;;19.99;100.00;102060.31;2611482;36;20358;-57
2022/05/21 14:54:25;;;;;;;;;;;;;;;18.77;100.00;102065.09;2612896;36;19946;-54
2022/05/21 14:56:53;;;;;;;;;;;;;;;18.88;100.00;102052.06;2611643;36;20106;-63
2022/05/21 14:59:21;;;;;;;;;;;;;;;19.41;100.00;102046.50;2611807;36;20135;-61
2022/05/21 15:01:51;;;;;;;;;;;;;;;20.10;100.00;102047.19;2611680;36;20027;-56
2022/05/21 15:04:22;;;;;;;;;;;;;;;19.67;100.00;102045.53;2611938;36;19950;-56
2022/05/21 15:06:50;;;;;;;;;;;;;;;19.81;100.00;102055.84;2611115;31;20030;-54
2022/05/21 15:09:18;;;;;;;;;;;;;;;19.61;100.00;102042.47;2610788;36;20038;-61
2022/05/21 15:11:47;;;;;;;;;;;;;;;19.79;98.46;102055.19;2614144;36;19958;-57
2022/05/21 15:14:15;;;;;;;;;;;;;;;19.51;96.43;102052.69;2613312;31;19953;-58
2022/05/21 15:16:43;;;;;;;;;;;;;;;19.33;100.00;102046.47;2612725;36;20458;-60
2022/05/21 15:19:11;;;;;;;;;;;;;;;19.43;100.00;102055.38;2612792;36;20061;-56
2022/05/21 15:21:44;;;;;;;;;;;;;;;19.41;100.00;102055.56;2613273;31;19951;-62
2022/05/21 15:24:12;;;;;;;;;;;;;;;19.20;100.00;102053.25;2613244;31;19953;-56
2022/05/21 15:26:40;;;;;;;;;;;;;;;18.80;100.00;102056.59;2613941;36;20080;-55
2022/05/21 15:29:08;;;;;;;;;;;;;;;18.74;100.00;102058.09;2613300;36;20045;-54
2022/05/21 15:31:36;;;;;;;;;;;;;;;18.96;100.00;102059.44;2612575;36;20474;-56
2022/05/21 15:34:04;;;;;;;;;;;;;;;19.34;100.00;102056.38;2613983;36;20050;-58
2022/05/21 15:36:32;;;;;;;;;;;;;;;19.41;100.00;102050.09;2612797;36;19953;-61
2022/05/21 15:39:03;;;;;;;;;;;;;;;18.87;100.00;102049.50;2613498;36;20053;-54
2022/05/21 15:41:31;;;;;;;;;;;;;;;18.96;100.00;102044.97;2613304;36;20886;-58
2022/05/21 15:43:59;;;;;;;;;;;;;;;19.30;100.00;102049.53;2612937;36;19951;-56
2022/05/21 15:46:28;;;;;;;;;;;;;;;19.16;100.00;102038.22;2598391;36;19958;-61
2022/05/21 15:48:56;;;;;;;;;;;;;;;19.46;100.00;102044.13;2606649;36;20054;-62
2022/05/21 15:51:25;;;;;;;;;;;;;;;19.10;100.00;102041.63;2614232;36;19946;-53
2022/05/21 15:53:55;;;;;;;;;;;;;;;19.50;100.00;102050.13;2613632;36;19954;-58
2022/05/21 15:56:32;;;;;;;;;;;;;;;19.44;100.00;102046.19;2612449;36;20041;-55
2022/05/21 15:59:00;;;;;;;;;;;;;;;19.37;100.00;102036.94;2613485;54;19951;-63
2022/05/21 16:01:33;;;;;;;;;;;;;;;19.63;100.00;102042.31;2612777;36;20325;-57
2022/05/21 16:04:01;;;;;;;;;;;;;;;19.50;100.00;102040.06;2612660;36;19953;-56
2022/05/21 16:06:29;;;;;;;;;;;;;;;19.81;100.00;102034.00;2611770;36;20434;-55
2022/05/21 16:08:58;;;;;;;;;;;;;;;20.15;100.00;102033.00;2611620;36;19958;-60
2022/05/21 16:11:30;;;;;;;;;;;;;;;19.22;100.00;102026.66;2613411;36;20037;-59
2022/05/21 16:13:59;;;;;;;;;;;;;;;19.16;100.00;102027.31;2613706;36;19954;-57
2022/05/21 16:16:28;;;;;;;;;;;;;;;19.19;100.00;102032.44;2612238;36;20002;-58
2022/05/21 16:18:56;;;;;;;;;;;;;;;18.82;100.00;102022.69;2612041;36;20495;-58
2022/05/21 16:21:26;;;;;;;;;;;;;;;19.14;100.00;102029.38;2610879;36;19977;-64
2022/05/21 16:23:56;;;;;;;;;;;;;;;19.80;100.00;102028.72;2609926;36;19957;-58
2022/05/21 16:29:07;;;;;;;;;;;;;;;19.81;100.00;102025.81;2610017;31;20078;-57
2022/05/21 16:31:35;;;;;;;;;;;;;;;19.99;100.00;102024.81;2613286;36;20470;-64
2022/05/21 16:34:03;;;;;;;;;;;;;;;19.72;100.00;102026.78;2612146;31;20467;-59
2022/05/21 16:36:31;;;;;;;;;;;;;;;20.51;100.00;102018.97;2612528;36;19977;-58
2022/05/21 16:38:59;;;;;;;;;;;;;;;20.45;100.00;102017.78;2612361;36;20061;-58
2022/05/21 16:41:28;;;;;;;;;;;;;;;20.54;100.00;102017.75;2612050;36;19985;-58
2022/05/21 16:43:56;;;;;;;;;;;;;;;20.42;100.00;102011.78;2611803;36;20073;-64
2022/05/21 16:46:26;;;;;;;;;;;;;;;19.96;100.00;102017.78;2611752;36;20062;-58
2022/05/21 16:48:54;;;;;;;;;;;;;;;19.23;100.00;102009.25;2611903;36;20507;-57
2022/05/21 16:51:22;;;;;;;;;;;;;;;17.89;100.00;102014.13;2613029;36;20511;-54
2022/05/21 16:53:50;;;;;;;;;;;;;;;17.80;100.00;102019.50;2611258;36;20484;-57
2022/05/21 16:56:18;;;;;;;;;;;;;;;18.27;100.00;102012.97;2598003;36;20006;-64
2022/05/21 16:58:47;;;;;;;;;;;;;;;18.32;100.00;102007.03;2612528;54;19981;-61
2022/05/21 17:01:17;;;;;;;;;;;;;;;18.56;100.00;102004.50;2612225;36;19947;-56
2022/05/21 17:03:51;;;;;;;;;;;;;;;18.85;100.00;102003.25;2613631;54;19950;-55
2022/05/21 17:06:19;;;;;;;;;;;;;;;19.29;100.00;102009.59;2612220;36;19955;-58
2022/05/21 17:08:50;;;;;;;;;;;;;;;19.42;100.00;102004.56;2612853;36;19947;-62
2022/05/21 17:11:18;;;;;;;;;;;;;;;18.58;100.00;102006.19;2613100;47;20791;-57
2022/05/21 17:18:49;;;;;;;;;;;;;;;18.42;100.00;101999.63;2615230;36;19958;-63
2022/05/21 17:21:17;;;;;;;;;;;;;;;18.66;100.00;102015.25;2612808;36;19950;-64
2022/05/21 17:23:46;;;;;;;;;;;;;;;18.23;100.00;102013.44;2613269;32;19974;-58
2022/05/21 17:26:14;;;;;;;;;;;;;;;17.21;100.00;102012.75;2612220;36;19954;-57
2022/05/21 17:31:22;;;;;;;;;;;;;;;17.73;100.00;102012.97;2614103;36;20006;-63
2022/05/21 17:33:53;;;;;;;;;;;;;;;17.78;100.00;102015.22;2613631;36;19958;-55
2022/05/21 17:36:21;;;;;;;;;;;;;;;17.75;100.00;102005.50;2615212;36;20500;-57
2022/05/21 17:41:24;;;;;;;;;;;;;;;17.51;100.00;102020.56;2617648;36;19956;-64
2022/05/21 17:43:53;;;;;;;;;;;;;;;17.40;100.00;102014.50;2613474;36;19993;-57
2022/05/21 17:46:23;;;;;;;;;;;;;;;17.32;100.00;102009.81;2613095;36;20350;-58
2022/05/21 17:48:54;;;;;;;;;;;;;;;17.36;100.00;102011.22;2613215;36;19962;-55
2022/05/21 17:51:27;;;;;;;;;;;;;;;17.43;100.00;102003.28;2613616;47;20026;-57
2022/05/21 17:53:55;;;;;;;;;;;;;;;17.50;100.00;102010.72;2612808;36;19959;-62
2022/05/21 17:56:23;;;;;;;;;;;;;;;17.10;100.00;102014.66;2619718;36;20069;-57
2022/05/21 17:58:51;;;;;;;;;;;;;;;17.34;100.00;102016.81;2613257;36;20058;-58
2022/05/21 18:01:21;;;;;;;;;;;;;;;16.78;100.00;102002.34;2612563;36;19974;-58
2022/05/21 18:06:39;;;;;;;;;;;;;;;16.62;100.00;102004.78;2613760;54;20471;-56
2022/05/21 18:09:07;;;;;;;;;;;;;;;16.07;100.00;102003.63;2615750;36;20563;-54
2022/05/21 18:11:36;;;;;;;;;;;;;;;15.81;100.00;102007.91;2613734;54;20053;-55
2022/05/21 18:14:06;;;;;;;;;;;;;;;16.13;100.00;102006.78;2612693;36;20109;-65
2022/05/21 18:19:25;;;;;;;;;;;;;;;16.17;100.00;102010.91;2612802;36;19954;-56
2022/05/21 18:21:57;;;;;;;;;;;;;;;15.93;100.00;102012.22;2612495;36;19958;-63
2022/05/21 18:24:26;;;;;;;;;;;;;;;16.01;100.00;102004.19;2612244;36;20531;-57
2022/05/21 18:26:55;;;;;;;;;;;;;;;15.91;100.00;102008.78;2612178;36;19950;-57
2022/05/21 18:29:22;;;;;;;;;;;;;;;16.03;100.00;102002.22;2612638;36;20077;-57
2022/05/21 18:31:52;;;;;;;;;;;;;;;16.02;100.00;102005.91;2613114;36;20482;-54
2022/05/21 18:34:21;;;;;;;;;;;;;;;16.02;100.00;102011.34;2612707;36;19962;-65
2022/05/21 18:36:49;;;;;;;;;;;;;;;15.83;100.00;102011.38;2616976;36;20043;-59
2022/05/21 18:39:20;;;;;;;;;;;;;;;15.36;100.00;102014.69;2612917;36;20030;-56
2022/05/21 18:41:48;;;;;;;;;;;;;;;15.44;100.00;102016.69;2613413;36;20467;-57
2022/05/21 18:44:16;;;;;;;;;;;;;;;15.46;100.00;102006.56;2612433;36;20030;-57
2022/05/21 18:46:44;;;;;;;;;;;;;;;15.49;100.00;102011.69;2613241;36;19982;-65
2022/05/21 18:49:13;;;;;;;;;;;;;;;15.49;100.00;102014.41;2613432;36;20041;-58
2022/05/21 18:51:43;;;;;;;;;;;;;;;15.17;100.00;102015.50;2612844;36;19958;-56
2022/05/21 18:54:26;;;;;;;;;;;;;;;15.22;100.00;102007.78;2613804;31;20320;-57
2022/05/21 18:56:57;;;;;;;;;;;;;;;15.10;100.00;102011.63;2614388;39;20523;-65
2022/05/21 18:59:27;;;;;;;;;;;;;;;15.03;100.00;102009.47;2615519;31;19950;-53
2022/05/21 19:01:55;;;;;;;;;;;;;;;15.05;100.00;102006.63;2615386;39;20369;-54
2022/05/21 19:04:23;;;;;;;;;;;;;;;15.07;100.00;102008.19;2614466;36;20068;-58
2022/05/21 19:06:51;;;;;;;;;;;;;;;14.87;100.00;102003.69;2617760;36;20030;-59
2022/05/21 19:09:19;;;;;;;;;;;;;;;14.76;100.00;102007.34;2631200;31;19989;-66
2022/05/21 19:11:50;;;;;;;;;;;;;;;14.67;100.00;102009.00;2614283;36;19946;-53
2022/05/21 19:14:19;;;;;;;;;;;;;;;14.59;100.00;102013.34;2613322;36;19961;-57
2022/05/21 19:16:48;;;;;;;;;;;;;;;14.60;100.00;102007.78;2613715;36;19972;-57
2022/05/21 19:19:30;;;;;;;;;;;;;;;14.55;100.00;102010.06;2613503;36;19973;-55
2022/05/21 19:21:59;;;;;;;;;;;;;;;14.66;100.00;101995.59;2613089;36;20440;-57
2022/05/21 19:24:28;;;;;;;;;;;;;;;14.58;100.00;101998.94;2611979;36;19951;-57
2022/05/21 19:27:00;;;;;;;;;;;;;;;14.42;100.00;102004.00;2612926;36;20455;-57
2022/05/21 19:29:29;;;;;;;;;;;;;;;14.33;100.00;102003.78;2613502;36;20489;-65
2022/05/21 19:31:57;;;;;;;;;;;;;;;14.34;100.00;102008.22;2613526;36;20081;-65
2022/05/21 19:34:26;;;;;;;;;;;;;;;14.19;100.00;102005.00;2613169;36;20466;-56
2022/05/21 19:42:19;;;;;;;;;;;;;;;13.72;100.00;102017.13;2613001;31;19950;-56
2022/05/21 19:44:47;;;;;;;;;;;;;;;13.69;100.00;102023.66;2613349;36;19966;-57
2022/05/21 19:49:48;;;;;;;;;;;;;;;13.52;100.00;102032.34;2613933;36;20002;-56
2022/05/21 19:54:51;;;;;;;;;;;;;;;13.31;100.00;102030.38;2611083;36;19957;-58
2022/05/21 19:59:50;;;;;;;;;;;;;;;13.37;100.00;102032.59;2615938;36;19966;-56
2022/05/21 20:02:22;;;;;;;;;;;;;;;13.28;100.00;102036.88;2613771;36;20001;-59
2022/05/21 20:04:50;;;;;;;;;;;;;;;13.13;100.00;102039.00;2613315;31;19957;-56
2022/05/21 20:07:19;;;;;;;;;;;;;;;12.99;100.00;102035.69;2614054;36;19950;-57
2022/05/21 20:12:23;;;;;;;;;;;;;;;12.74;100.00;102038.47;2612270;36;20049;-55
2022/05/21 20:15:00;;;;;;;;;;;;;;;12.65;100.00;102041.91;2613084;36;19969;-55
2022/05/21 20:17:29;;;;;;;;;;;;;;;12.53;100.00;102041.03;2614646;36;20351;-57
2022/05/21 20:19:58;;;;;;;;;;;;;;;12.45;100.00;102043.47;2613621;36;19953;-58
2022/05/21 20:22:26;;;;;;;;;;;;;;;12.33;100.00;102039.03;2613980;36;20432;-58
2022/05/21 20:24:54;;;;;;;;;;;;;;;12.32;100.00;102034.59;2611455;36;20799;-56
2022/05/21 20:27:22;;;;;;;;;;;;;;;12.29;100.00;102038.38;2612191;36;19958;-54
2022/05/21 20:29:50;;;;;;;;;;;;;;;12.25;100.00;102039.63;2612262;36;20082;-57
2022/05/21 20:32:21;;;;;;;;;;;;;;;12.22;100.00;102038.03;2612816;36;20073;-57
2022/05/21 20:34:49;;;;;;;;;;;;;;;12.17;100.00;102034.78;2612273;36;19973;-54
2022/05/21 20:37:17;;;;;;;;;;;;;;;12.16;100.00;102030.41;2613487;36;19957;-56
2022/05/21 20:39:46;;;;;;;;;;;;;;;12.15;100.00;102034.06;2613348;36;19951;-57
2022/05/21 20:42:21;;;;;;;;;;;;;;;12.09;100.00;102031.84;2614093;36;19947;-57
2022/05/21 20:44:49;;;;;;;;;;;;;;;12.03;100.00;102032.31;2602580;36;20061;-57
2022/05/21 20:47:17;;;;;;;;;;;;;;;12.02;100.00;102025.19;2606581;36;20321;-54